sensor_id;sensor_type;location;lat;lon;timestamp;pressure;altitude;pressure_sealevel;temperature;humidity
71476;BME280;59286;59.274;17.974;2023-08-12T00:01:02;101534.41;;;10.92;100.00
71476;BME280;59286;59.274;17.974;2023-08-12T00:03:28;101549.59;;;10.95;100.00
71476;BME280;59286;59.274;17.974;2023-08-12T00:05:53;101532.84;;;10.91;100.00
71476;BME280;59286;59.274;17.974;2023-08-12T00:08:19;101537.09;;;10.87;100.00
71476;BME280;59286;59.274;17.974;2023-08-12T00:10:45;101543.31;;;10.91;100.00
71476;BME280;59286;59.274;17.974;2023-08-12T00:13:10;101543.31;;;10.91;100.00
71476;BME280;59286;59.274;17.974;2023-08-12T00:15:35;101543.88;;;10.88;100.00
71476;BME280;59286;59.274;17.974;2023-08-12T00:18:01;101536.06;;;10.78;100.00
71476;BME280;59286;59.274;17.974;2023-08-12T00:20:29;101526.09;;;10.80;100.00
71476;BME280;59286;59.274;17.974;2023-08-12T00:22:55;101517.25;;;10.71;100.00
71476;BME280;59286;59.274;17.974;2023-08-12T00:25:20;101512.31;;;10.64;100.00
71476;BME280;59286;59.274;17.974;2023-08-12T00:27:45;101539.94;;;10.86;100.00
71476;BME280;59286;59.274;17.974;2023-08-12T00:30:11;101546.78;;;10.87;100.00
71476;BME280;59286;59.274;17.974;2023-08-12T00:32:36;101545.47;;;10.84;100.00
71476;BME280;59286;59.274;17.974;2023-08-12T00:35:02;101520.94;;;10.70;100.00
71476;BME280;59286;59.274;17.974;2023-08-12T00:37:28;101546.00;;;10.86;100.00
71476;BME280;59286;59.274;17.974;2023-08-12T00:39:53;101550.94;;;10.93;100.00
71476;BME280;59286;59.274;17.974;2023-08-12T00:42:18;101543.06;;;10.93;100.00
71476;BME280;59286;59.274;17.974;2023-08-12T00:44:44;101532.38;;;10.84;100.00
71476;BME280;59286;59.274;17.974;2023-08-12T00:47:09;101549.09;;;10.93;100.00
71476;BME280;59286;59.274;17.974;2023-08-12T00:49:34;101545.38;;;10.99;100.00
71476;BME280;59286;59.274;17.974;2023-08-12T00:52:02;101538.56;;;10.98;100.00
71476;BME280;59286;59.274;17.974;2023-08-12T00:54:27;101543.81;;;10.98;100.00
71476;BME280;59286;59.274;17.974;2023-08-12T00:56:53;101513.81;;;10.76;100.00
71476;BME280;59286;59.274;17.974;2023-08-12T00:59:19;101509.31;;;10.81;100.00
71476;BME280;59286;59.274;17.974;2023-08-12T01:01:46;101544.06;;;11.02;100.00
71476;BME280;59286;59.274;17.974;2023-08-12T01:04:12;101531.50;;;10.94;100.00
71476;BME280;59286;59.274;17.974;2023-08-12T01:06:38;101516.63;;;10.84;100.00
71476;BME280;59286;59.274;17.974;2023-08-12T01:09:04;101534.88;;;10.99;100.00
71476;BME280;59286;59.274;17.974;2023-08-12T01:11:41;101532.53;;;10.98;100.00
71476;BME280;59286;59.274;17.974;2023-08-12T01:14:15;101528.59;;;10.95;100.00
71476;BME280;59286;59.274;17.974;2023-08-12T01:16:46;101527.06;;;10.94;100.00
71476;BME280;59286;59.274;17.974;2023-08-12T01:19:30;101532.53;;;10.98;100.00
71476;BME280;59286;59.274;17.974;2023-08-12T01:22:00;101518.75;;;10.82;100.00
71476;BME280;59286;59.274;17.974;2023-08-12T01:24:37;101520.09;;;10.80;100.00
71476;BME280;59286;59.274;17.974;2023-08-12T01:27:03;101529.16;;;10.92;100.00
71476;BME280;59286;59.274;17.974;2023-08-12T01:29:29;101529.97;;;10.88;100.00
71476;BME280;59286;59.274;17.974;2023-08-12T01:32:02;101537.56;;;10.89;100.00
71476;BME280;59286;59.274;17.974;2023-08-12T01:34:41;101519.53;;;10.83;100.00
71476;BME280;59286;59.274;17.974;2023-08-12T01:37:08;101528.94;;;10.89;100.00
71476;BME280;59286;59.274;17.974;2023-08-12T01:39:35;101511.16;;;10.81;100.00
71476;BME280;59286;59.274;17.974;2023-08-12T01:42:02;101508.81;;;10.79;100.00
71476;BME280;59286;59.274;17.974;2023-08-12T01:44:28;101497.56;;;10.68;100.00
71476;BME280;59286;59.274;17.974;2023-08-12T01:46:53;101505.44;;;10.73;100.00
71476;BME280;59286;59.274;17.974;2023-08-12T01:49:19;101519.25;;;10.84;100.00
71476;BME280;59286;59.274;17.974;2023-08-12T01:51:44;101518.22;;;10.85;100.00
71476;BME280;59286;59.274;17.974;2023-08-12T01:54:09;101519.25;;;10.84;100.00
71476;BME280;59286;59.274;17.974;2023-08-12T01:56:35;101525.28;;;10.85;100.00
71476;BME280;59286;59.274;17.974;2023-08-12T01:59:00;101533.94;;;10.85;100.00
71476;BME280;59286;59.274;17.974;2023-08-12T02:01:25;101531.31;;;10.85;100.00
71476;BME280;59286;59.274;17.974;2023-08-12T02:03:51;101518.47;;;10.84;100.00
71476;BME280;59286;59.274;17.974;2023-08-12T02:06:16;101505.72;;;10.67;100.00
71476;BME280;59286;59.274;17.974;2023-08-12T02:08:41;101519.34;;;10.69;100.00
71476;BME280;59286;59.274;17.974;2023-08-12T02:11:07;101501.06;;;10.59;100.00
71476;BME280;59286;59.274;17.974;2023-08-12T02:13:32;101506.28;;;10.64;100.00
71476;BME280;59286;59.274;17.974;2023-08-12T02:15:57;101536.81;;;10.84;100.00
71476;BME280;59286;59.274;17.974;2023-08-12T02:18:23;101506.84;;;10.61;100.00
71476;BME280;59286;59.274;17.974;2023-08-12T02:20:48;101504.22;;;10.61;100.00
71476;BME280;59286;59.274;17.974;2023-08-12T02:23:14;101507.31;;;10.63;100.00
71476;BME280;59286;59.274;17.974;2023-08-12T02:25:39;101529.00;;;10.79;100.00
71476;BME280;59286;59.274;17.974;2023-08-12T02:28:04;101510.22;;;10.61;100.00
71476;BME280;59286;59.274;17.974;2023-08-12T02:30:30;101516.19;;;10.72;100.00
71476;BME280;59286;59.274;17.974;2023-08-12T02:32:56;101535.03;;;10.79;100.00
71476;BME280;59286;59.274;17.974;2023-08-12T02:35:21;101529.00;;;10.79;100.00
71476;BME280;59286;59.274;17.974;2023-08-12T02:37:48;101526.66;;;10.77;100.00
71476;BME280;59286;59.274;17.974;2023-08-12T02:40:13;101458.22;;;10.35;100.00
71476;BME280;59286;59.274;17.974;2023-08-12T02:42:39;101486.97;;;10.45;100.00
71476;BME280;59286;59.274;17.974;2023-08-12T02:45:05;101481.25;;;10.38;100.00
71476;BME280;59286;59.274;17.974;2023-08-12T02:47:30;101535.88;;;10.69;100.00
71476;BME280;59286;59.274;17.974;2023-08-12T02:49:55;101493.53;;;10.42;100.00
71476;BME280;59286;59.274;17.974;2023-08-12T02:52:21;101513.16;;;10.55;100.00
71476;BME280;59286;59.274;17.974;2023-08-12T02:54:46;101521.22;;;10.63;100.00
71476;BME280;59286;59.274;17.974;2023-08-12T02:57:11;101486.97;;;10.45;100.00
71476;BME280;59286;59.274;17.974;2023-08-12T02:59:37;101488.31;;;10.42;100.00
71476;BME280;59286;59.274;17.974;2023-08-12T03:02:02;101523.03;;;10.63;100.00
71476;BME280;59286;59.274;17.974;2023-08-12T03:04:28;101513.63;;;10.62;100.00
71476;BME280;59286;59.274;17.974;2023-08-12T03:06:54;101517.31;;;10.61;100.00
71476;BME280;59286;59.274;17.974;2023-08-12T03:09:19;101483.88;;;10.38;100.00
71476;BME280;59286;59.274;17.974;2023-08-12T03:11:45;101520.41;;;10.68;100.00
71476;BME280;59286;59.274;17.974;2023-08-12T03:14:11;101525.38;;;10.69;100.00
71476;BME280;59286;59.274;17.974;2023-08-12T03:16:37;101501.59;;;10.61;100.00
71476;BME280;59286;59.274;17.974;2023-08-12T03:19:02;101514.84;;;10.74;100.00
71476;BME280;59286;59.274;17.974;2023-08-12T03:21:27;101510.34;;;10.80;100.00
71476;BME280;59286;59.274;17.974;2023-08-12T03:23:53;101488.94;;;10.68;100.00
71476;BME280;59286;59.274;17.974;2023-08-12T03:26:19;101504.59;;;10.78;100.00
71476;BME280;59286;59.274;17.974;2023-08-12T03:28:44;101507.72;;;10.85;100.00
71476;BME280;59286;59.274;17.974;2023-08-12T03:31:09;101490.72;;;10.78;100.00
71476;BME280;59286;59.274;17.974;2023-08-12T03:33:35;101505.59;;;10.87;100.00
71476;BME280;59286;59.274;17.974;2023-08-12T03:36:00;101503.47;;;10.89;100.00
71476;BME280;59286;59.274;17.974;2023-08-12T03:38:25;101503.97;;;10.96;100.00
71476;BME280;59286;59.274;17.974;2023-08-12T03:40:51;101493.19;;;10.98;100.00
71476;BME280;59286;59.274;17.974;2023-08-12T03:43:16;101483.72;;;11.02;100.00
71476;BME280;59286;59.274;17.974;2023-08-12T03:45:42;101498.09;;;11.09;100.00
71476;BME280;59286;59.274;17.974;2023-08-12T03:48:08;101509.31;;;11.15;100.00
71476;BME280;59286;59.274;17.974;2023-08-12T03:50:35;101501.69;;;11.13;100.00
71476;BME280;59286;59.274;17.974;2023-08-12T03:53:01;101513.88;;;11.33;100.00
71476;BME280;59286;59.274;17.974;2023-08-12T03:55:26;101507.84;;;11.32;100.00
71476;BME280;59286;59.274;17.974;2023-08-12T03:57:51;101500.25;;;11.31;100.00
71476;BME280;59286;59.274;17.974;2023-08-12T04:00:17;101488.56;;;11.18;100.00
71476;BME280;59286;59.274;17.974;2023-08-12T04:02:42;101508.84;;;11.36;100.00
71476;BME280;59286;59.274;17.974;2023-08-12T04:05:08;101495.00;;;11.31;100.00
71476;BME280;59286;59.274;17.974;2023-08-12T04:07:36;101486.91;;;11.27;100.00
71476;BME280;59286;59.274;17.974;2023-08-12T04:10:02;101509.22;;;11.53;100.00
71476;BME280;59286;59.274;17.974;2023-08-12T04:12:27;101505.00;;;11.57;100.00
71476;BME280;59286;59.274;17.974;2023-08-12T04:14:53;101477.16;;;11.56;100.00
71476;BME280;59286;59.274;17.974;2023-08-12T04:17:18;101499.56;;;11.78;100.00
71476;BME280;59286;59.274;17.974;2023-08-12T04:19:44;101460.84;;;11.59;100.00
71476;BME280;59286;59.274;17.974;2023-08-12T04:22:09;101466.22;;;11.73;100.00
71476;BME280;59286;59.274;17.974;2023-08-12T04:24:34;101458.63;;;11.72;100.00
71476;BME280;59286;59.274;17.974;2023-08-12T04:27:00;101506.72;;;12.14;100.00
71476;BME280;59286;59.274;17.974;2023-08-12T04:29:25;101470.78;;;12.10;100.00
71476;BME280;59286;59.274;17.974;2023-08-12T04:31:50;101496.81;;;12.48;100.00
71476;BME280;59286;59.274;17.974;2023-08-12T04:34:18;101494.09;;;12.72;100.00
71476;BME280;59286;59.274;17.974;2023-08-12T04:36:43;101463.03;;;12.74;100.00
71476;BME280;59286;59.274;17.974;2023-08-12T04:39:09;101476.53;;;13.05;100.00
71476;BME280;59286;59.274;17.974;2023-08-12T04:41:35;101455.66;;;13.08;100.00
71476;BME280;59286;59.274;17.974;2023-08-12T04:44:00;101476.88;;;13.30;100.00
71476;BME280;59286;59.274;17.974;2023-08-12T04:46:26;101493.94;;;13.46;100.00
71476;BME280;59286;59.274;17.974;2023-08-12T04:48:51;101464.78;;;13.43;100.00
71476;BME280;59286;59.274;17.974;2023-08-12T04:51:17;101452.78;;;13.50;100.00
71476;BME280;59286;59.274;17.974;2023-08-12T04:53:42;101482.16;;;13.71;100.00
71476;BME280;59286;59.274;17.974;2023-08-12T04:56:07;101461.97;;;13.80;100.00
71476;BME280;59286;59.274;17.974;2023-08-12T04:58:33;101472.00;;;14.05;100.00
71476;BME280;59286;59.274;17.974;2023-08-12T05:01:00;101452.63;;;14.10;100.00
71476;BME280;59286;59.274;17.974;2023-08-12T05:03:26;101471.97;;;14.32;100.00
71476;BME280;59286;59.274;17.974;2023-08-12T05:05:51;101471.63;;;14.47;100.00
71476;BME280;59286;59.274;17.974;2023-08-12T05:08:17;101464.97;;;14.50;100.00
71476;BME280;59286;59.274;17.974;2023-08-12T05:10:43;101471.59;;;14.61;100.00
71476;BME280;59286;59.274;17.974;2023-08-12T05:13:09;101460.97;;;14.75;100.00
71476;BME280;59286;59.274;17.974;2023-08-12T05:15:34;101472.25;;;14.89;100.00
71476;BME280;59286;59.274;17.974;2023-08-12T05:18:01;101470.88;;;14.91;100.00
71476;BME280;59286;59.274;17.974;2023-08-12T05:20:27;101469.25;;;15.12;100.00
71476;BME280;59286;59.274;17.974;2023-08-12T05:22:53;101450.88;;;15.29;100.00
71476;BME280;59286;59.274;17.974;2023-08-12T05:25:18;101450.53;;;15.22;98.90
71476;BME280;59286;59.274;17.974;2023-08-12T05:27:43;101476.44;;;15.42;99.83
71476;BME280;59286;59.274;17.974;2023-08-12T05:30:09;101468.28;;;15.30;97.62
71476;BME280;59286;59.274;17.974;2023-08-12T05:32:35;101482.47;;;15.34;98.33
71476;BME280;59286;59.274;17.974;2023-08-12T05:35:00;101486.34;;;15.37;98.03
71476;BME280;59286;59.274;17.974;2023-08-12T05:37:25;101477.59;;;15.28;96.64
71476;BME280;59286;59.274;17.974;2023-08-12T05:39:51;101487.25;;;15.32;96.15
71476;BME280;59286;59.274;17.974;2023-08-12T05:42:16;101489.59;;;15.34;97.47
71476;BME280;59286;59.274;17.974;2023-08-12T05:44:42;101479.56;;;15.44;95.83
71476;BME280;59286;59.274;17.974;2023-08-12T05:47:07;101482.84;;;15.50;96.58
71476;BME280;59286;59.274;17.974;2023-08-12T05:49:33;101476.31;;;15.47;95.49
71476;BME280;59286;59.274;17.974;2023-08-12T05:51:58;101478.34;;;15.50;95.70
71476;BME280;59286;59.274;17.974;2023-08-12T05:54:23;101483.97;;;15.58;97.68
71476;BME280;59286;59.274;17.974;2023-08-12T05:56:49;101480.44;;;15.71;97.73
71476;BME280;59286;59.274;17.974;2023-08-12T05:59:14;101476.56;;;15.77;97.96
71476;BME280;59286;59.274;17.974;2023-08-12T06:01:39;101464.25;;;15.72;95.64
71476;BME280;59286;59.274;17.974;2023-08-12T06:04:05;101476.13;;;15.83;95.69
71476;BME280;59286;59.274;17.974;2023-08-12T06:06:30;101455.63;;;15.89;95.28
71476;BME280;59286;59.274;17.974;2023-08-12T06:08:55;101454.53;;;15.98;93.60
71476;BME280;59286;59.274;17.974;2023-08-12T06:11:21;101467.66;;;16.29;95.08
71476;BME280;59286;59.274;17.974;2023-08-12T06:13:46;101467.63;;;16.37;93.20
71476;BME280;59286;59.274;17.974;2023-08-12T06:16:11;101446.78;;;16.36;90.03
71476;BME280;59286;59.274;17.974;2023-08-12T06:18:37;101462.69;;;16.53;91.06
71476;BME280;59286;59.274;17.974;2023-08-12T06:21:02;101448.22;;;16.59;86.63
71476;BME280;59286;59.274;17.974;2023-08-12T06:23:27;101441.53;;;16.53;88.57
71476;BME280;59286;59.274;17.974;2023-08-12T06:25:53;101451.78;;;16.63;89.80
71476;BME280;59286;59.274;17.974;2023-08-12T06:28:18;101464.09;;;16.76;89.18
71476;BME280;59286;59.274;17.974;2023-08-12T06:30:47;101458.75;;;16.85;89.17
71476;BME280;59286;59.274;17.974;2023-08-12T06:33:14;101469.31;;;16.93;90.15
71476;BME280;59286;59.274;17.974;2023-08-12T06:35:39;101447.09;;;16.77;86.93
71476;BME280;59286;59.274;17.974;2023-08-12T06:38:05;101473.72;;;16.89;86.12
71476;BME280;59286;59.274;17.974;2023-08-12T06:40:30;101451.00;;;16.80;84.13
71476;BME280;59286;59.274;17.974;2023-08-12T06:42:56;101466.38;;;16.86;84.87
71476;BME280;59286;59.274;17.974;2023-08-12T06:45:21;101463.09;;;16.98;87.08
71476;BME280;59286;59.274;17.974;2023-08-12T06:47:46;101462.31;;;16.97;87.37
71476;BME280;59286;59.274;17.974;2023-08-12T06:50:12;101461.84;;;16.95;85.42
71476;BME280;59286;59.274;17.974;2023-08-12T06:52:37;101460.72;;;17.05;86.39
71476;BME280;59286;59.274;17.974;2023-08-12T06:55:02;101466.03;;;17.13;85.50
71476;BME280;59286;59.274;17.974;2023-08-12T06:57:28;101476.44;;;17.18;86.33
71476;BME280;59286;59.274;17.974;2023-08-12T06:59:53;101478.63;;;17.16;84.61
71476;BME280;59286;59.274;17.974;2023-08-12T07:02:18;101449.56;;;16.91;84.74
71476;BME280;59286;59.274;17.974;2023-08-12T07:04:44;101463.09;;;16.98;84.64
71476;BME280;59286;59.274;17.974;2023-08-12T07:07:09;101434.63;;;16.78;85.12
71476;BME280;59286;59.274;17.974;2023-08-12T07:09:34;101450.50;;;16.86;85.48
71476;BME280;59286;59.274;17.974;2023-08-12T07:12:00;101444.28;;;16.82;87.48
71476;BME280;59286;59.274;17.974;2023-08-12T07:14:26;101443.94;;;16.92;85.30
71476;BME280;59286;59.274;17.974;2023-08-12T07:16:53;101466.13;;;17.25;85.51
71476;BME280;59286;59.274;17.974;2023-08-12T07:19:18;101460.50;;;17.27;83.26
71476;BME280;59286;59.274;17.974;2023-08-12T07:21:44;101449.31;;;17.21;82.86
71476;BME280;59286;59.274;17.974;2023-08-12T07:24:09;101456.00;;;17.27;83.51
71476;BME280;59286;59.274;17.974;2023-08-12T07:26:34;101453.16;;;17.32;85.84
71476;BME280;59286;59.274;17.974;2023-08-12T07:29:00;101442.56;;;17.32;81.44
71476;BME280;59286;59.274;17.974;2023-08-12T07:31:25;101480.09;;;17.52;83.79
71476;BME280;59286;59.274;17.974;2023-08-12T07:33:50;101474.16;;;17.55;83.22
71476;BME280;59286;59.274;17.974;2023-08-12T07:36:16;101453.75;;;17.47;83.78
71476;BME280;59286;59.274;17.974;2023-08-12T07:38:41;101466.84;;;17.52;82.79
71476;BME280;59286;59.274;17.974;2023-08-12T07:41:06;101485.47;;;17.72;81.61
71476;BME280;59286;59.274;17.974;2023-08-12T07:43:32;101477.88;;;17.62;80.66
71476;BME280;59286;59.274;17.974;2023-08-12T07:45:57;101486.13;;;17.61;81.11
71476;BME280;59286;59.274;17.974;2023-08-12T07:48:23;101489.75;;;17.56;83.31
71476;BME280;59286;59.274;17.974;2023-08-12T07:50:58;101477.91;;;17.54;82.88
71476;BME280;59286;59.274;17.974;2023-08-12T07:53:24;101486.25;;;17.64;82.66
71476;BME280;59286;59.274;17.974;2023-08-12T07:55:49;101487.31;;;17.72;82.00
71476;BME280;59286;59.274;17.974;2023-08-12T07:58:15;101472.19;;;17.72;80.49
71476;BME280;59286;59.274;17.974;2023-08-12T08:00:40;101482.53;;;17.65;79.40
71476;BME280;59286;59.274;17.974;2023-08-12T08:03:06;101472.63;;;17.45;80.66
71476;BME280;59286;59.274;17.974;2023-08-12T08:05:31;101479.03;;;17.35;81.07
71476;BME280;59286;59.274;17.974;2023-08-12T08:07:56;101479.66;;;17.32;80.77
71476;BME280;59286;59.274;17.974;2023-08-12T08:10:22;101466.41;;;17.32;80.88
71476;BME280;59286;59.274;17.974;2023-08-12T08:12:47;101479.78;;;17.44;80.01
71476;BME280;59286;59.274;17.974;2023-08-12T08:15:12;101478.63;;;17.63;81.55
71476;BME280;59286;59.274;17.974;2023-08-12T08:17:38;101470.00;;;17.74;80.32
71476;BME280;59286;59.274;17.974;2023-08-12T08:20:03;101480.16;;;18.01;81.18
71476;BME280;59286;59.274;17.974;2023-08-12T08:22:31;101476.41;;;18.23;79.36
71476;BME280;59286;59.274;17.974;2023-08-12T08:24:56;101466.50;;;18.32;78.20
71476;BME280;59286;59.274;17.974;2023-08-12T08:27:21;101470.97;;;18.40;79.13
71476;BME280;59286;59.274;17.974;2023-08-12T08:29:46;101452.06;;;18.21;78.69
71476;BME280;59286;59.274;17.974;2023-08-12T08:32:12;101467.19;;;18.41;78.93
71476;BME280;59286;59.274;17.974;2023-08-12T08:34:37;101462.50;;;18.47;77.39
71476;BME280;59286;59.274;17.974;2023-08-12T08:37:03;101460.75;;;18.51;77.65
71476;BME280;59286;59.274;17.974;2023-08-12T08:39:28;101462.69;;;18.62;76.10
71476;BME280;59286;59.274;17.974;2023-08-12T08:41:54;101469.09;;;18.61;75.98
71476;BME280;59286;59.274;17.974;2023-08-12T08:44:22;101472.00;;;18.68;77.21
71476;BME280;59286;59.274;17.974;2023-08-12T08:46:50;101466.47;;;18.73;75.78
71476;BME280;59286;59.274;17.974;2023-08-12T08:49:17;101464.72;;;18.77;75.45
71476;BME280;59286;59.274;17.974;2023-08-12T08:51:43;101453.66;;;18.75;75.26
71476;BME280;59286;59.274;17.974;2023-08-12T08:54:11;101476.94;;;18.90;77.60
71476;BME280;59286;59.274;17.974;2023-08-12T08:56:37;101476.56;;;19.12;77.56
71476;BME280;59286;59.274;17.974;2023-08-12T08:59:04;101479.78;;;19.18;77.82
71476;BME280;59286;59.274;17.974;2023-08-12T09:01:30;101458.72;;;19.13;75.76
71476;BME280;59286;59.274;17.974;2023-08-12T09:03:57;101454.63;;;19.15;74.20
71476;BME280;59286;59.274;17.974;2023-08-12T09:06:25;101467.09;;;19.36;75.39
71476;BME280;59286;59.274;17.974;2023-08-12T09:08:54;101466.31;;;19.47;76.76
71476;BME280;59286;59.274;17.974;2023-08-12T09:11:21;101479.72;;;19.63;74.03
71476;BME280;59286;59.274;17.974;2023-08-12T09:13:47;101477.63;;;19.80;76.16
71476;BME280;59286;59.274;17.974;2023-08-12T09:16:14;101476.81;;;19.92;75.60
71476;BME280;59286;59.274;17.974;2023-08-12T09:18:42;101467.19;;;19.87;71.74
71476;BME280;59286;59.274;17.974;2023-08-12T09:21:08;101471.97;;;19.82;74.14
71476;BME280;59286;59.274;17.974;2023-08-12T09:23:35;101471.88;;;19.78;73.57
71476;BME280;59286;59.274;17.974;2023-08-12T09:26:02;101477.28;;;19.82;74.75
71476;BME280;59286;59.274;17.974;2023-08-12T09:28:27;101462.22;;;19.86;73.94
71476;BME280;59286;59.274;17.974;2023-08-12T09:30:52;101455.06;;;19.90;73.71
71476;BME280;59286;59.274;17.974;2023-08-12T09:33:24;101478.38;;;19.93;73.29
71476;BME280;59286;59.274;17.974;2023-08-12T09:35:50;101481.69;;;19.90;73.81
71476;BME280;59286;59.274;17.974;2023-08-12T09:38:15;101474.28;;;19.83;75.29
71476;BME280;59286;59.274;17.974;2023-08-12T09:40:41;101473.06;;;19.81;73.31
71476;BME280;59286;59.274;17.974;2023-08-12T09:43:06;101459.44;;;19.70;75.39
71476;BME280;59286;59.274;17.974;2023-08-12T09:45:34;101468.53;;;19.93;73.69
71476;BME280;59286;59.274;17.974;2023-08-12T09:48:00;101468.06;;;19.91;74.23
71476;BME280;59286;59.274;17.974;2023-08-12T09:50:26;101451.56;;;19.86;74.57
71476;BME280;59286;59.274;17.974;2023-08-12T09:52:53;101448.66;;;19.91;75.73
71476;BME280;59286;59.274;17.974;2023-08-12T09:55:20;101466.16;;;20.04;74.86
71476;BME280;59286;59.274;17.974;2023-08-12T09:57:53;101454.50;;;20.08;75.12
71476;BME280;59286;59.274;17.974;2023-08-12T10:00:20;101460.16;;;20.19;74.36
71476;BME280;59286;59.274;17.974;2023-08-12T10:02:48;101461.59;;;20.29;75.43
71476;BME280;59286;59.274;17.974;2023-08-12T10:05:31;101464.06;;;20.49;76.74
71476;BME280;59286;59.274;17.974;2023-08-12T10:07:57;101462.13;;;20.62;74.11
71476;BME280;59286;59.274;17.974;2023-08-12T10:10:24;101454.38;;;20.72;75.78
71476;BME280;59286;59.274;17.974;2023-08-12T10:12:50;101455.88;;;20.85;74.66
71476;BME280;59286;59.274;17.974;2023-08-12T10:15:16;101456.38;;;21.03;77.42
71476;BME280;59286;59.274;17.974;2023-08-12T10:17:41;101440.25;;;20.99;73.04
71476;BME280;59286;59.274;17.974;2023-08-12T10:20:08;101454.47;;;21.19;72.01
71476;BME280;59286;59.274;17.974;2023-08-12T10:22:35;101440.97;;;21.28;71.77
71476;BME280;59286;59.274;17.974;2023-08-12T10:25:04;101435.81;;;21.35;72.15
71476;BME280;59286;59.274;17.974;2023-08-12T10:27:33;101435.88;;;21.54;72.24
71476;BME280;59286;59.274;17.974;2023-08-12T10:29:59;101439.56;;;21.34;71.06
71476;BME280;59286;59.274;17.974;2023-08-12T10:32:25;101436.94;;;21.02;73.53
71476;BME280;59286;59.274;17.974;2023-08-12T10:34:54;101444.13;;;21.02;75.40
71476;BME280;59286;59.274;17.974;2023-08-12T10:37:21;101441.50;;;21.17;73.52
71476;BME280;59286;59.274;17.974;2023-08-12T10:39:46;101439.53;;;21.14;72.22
71476;BME280;59286;59.274;17.974;2023-08-12T10:42:11;101437.28;;;21.16;73.69
71476;BME280;59286;59.274;17.974;2023-08-12T10:44:49;101437.25;;;21.32;74.38
71476;BME280;59286;59.274;17.974;2023-08-12T10:47:19;101428.31;;;21.40;73.27
71476;BME280;59286;59.274;17.974;2023-08-12T10:49:49;101443.75;;;21.66;73.03
71476;BME280;59286;59.274;17.974;2023-08-12T10:52:41;101446.06;;;21.83;72.63
71476;BME280;59286;59.274;17.974;2023-08-12T10:55:20;101435.41;;;21.83;70.16
71476;BME280;59286;59.274;17.974;2023-08-12T10:57:55;101427.31;;;21.64;71.21
71476;BME280;59286;59.274;17.974;2023-08-12T11:00:24;101436.75;;;21.77;72.27
71476;BME280;59286;59.274;17.974;2023-08-12T11:02:52;101430.19;;;21.90;71.29
71476;BME280;59286;59.274;17.974;2023-08-12T11:05:18;101435.56;;;22.09;70.88
71476;BME280;59286;59.274;17.974;2023-08-12T11:07:57;101437.59;;;22.15;72.36
71476;BME280;59286;59.274;17.974;2023-08-12T11:10:25;101426.09;;;22.11;69.46
71476;BME280;59286;59.274;17.974;2023-08-12T11:15:16;101429.97;;;21.79;72.23
71476;BME280;59286;59.274;17.974;2023-08-12T11:17:42;101425.78;;;21.97;74.23
71476;BME280;59286;59.274;17.974;2023-08-12T11:20:09;101420.44;;;21.97;73.07
71476;BME280;59286;59.274;17.974;2023-08-12T11:22:37;101425.25;;;22.07;73.74
71476;BME280;59286;59.274;17.974;2023-08-12T11:25:08;101435.69;;;21.97;71.41
71476;BME280;59286;59.274;17.974;2023-08-12T11:27:44;101428.16;;;21.83;71.44
71476;BME280;59286;59.274;17.974;2023-08-12T11:30:17;101435.53;;;21.90;70.10
71476;BME280;59286;59.274;17.974;2023-08-12T11:32:45;101427.84;;;22.04;70.79
71476;BME280;59286;59.274;17.974;2023-08-12T11:35:12;101412.22;;;22.25;70.43
71476;BME280;59286;59.274;17.974;2023-08-12T11:37:39;101415.28;;;22.46;69.47
71476;BME280;59286;59.274;17.974;2023-08-12T11:40:06;101415.13;;;22.77;69.06
71476;BME280;59286;59.274;17.974;2023-08-12T11:42:34;101420.41;;;22.74;69.48
71476;BME280;59286;59.274;17.974;2023-08-12T11:44:59;101418.81;;;22.69;67.26
71476;BME280;59286;59.274;17.974;2023-08-12T11:47:25;101407.56;;;22.60;67.66
71476;BME280;59286;59.274;17.974;2023-08-12T11:49:52;101397.16;;;22.36;66.69
71476;BME280;59286;59.274;17.974;2023-08-12T11:52:18;101384.94;;;22.16;67.87
71476;BME280;59286;59.274;17.974;2023-08-12T11:54:44;101388.88;;;21.84;67.74
71476;BME280;59286;59.274;17.974;2023-08-12T11:57:09;101401.03;;;21.81;70.44
71476;BME280;59286;59.274;17.974;2023-08-12T11:59:35;101406.47;;;21.85;69.26
71476;BME280;59286;59.274;17.974;2023-08-12T12:02:02;101411.56;;;21.93;69.65
71476;BME280;59286;59.274;17.974;2023-08-12T12:04:27;101402.59;;;21.82;69.79
71476;BME280;59286;59.274;17.974;2023-08-12T12:06:53;101402.41;;;21.91;70.08
71476;BME280;59286;59.274;17.974;2023-08-12T12:09:19;101404.00;;;21.95;68.64
71476;BME280;59286;59.274;17.974;2023-08-12T12:11:45;101404.50;;;22.01;69.03
71476;BME280;59286;59.274;17.974;2023-08-12T12:14:10;101407.44;;;21.96;70.31
71476;BME280;59286;59.274;17.974;2023-08-12T12:16:44;101421.56;;;22.15;68.86
71476;BME280;59286;59.274;17.974;2023-08-12T12:19:20;101415.53;;;22.19;69.31
71476;BME280;59286;59.274;17.974;2023-08-12T12:21:50;101401.28;;;22.11;69.96
71476;BME280;59286;59.274;17.974;2023-08-12T12:24:17;101401.69;;;22.13;69.62
71476;BME280;59286;59.274;17.974;2023-08-12T12:26:43;101406.59;;;22.11;70.46
71476;BME280;59286;59.274;17.974;2023-08-12T12:29:09;101400.97;;;21.97;68.02
71476;BME280;59286;59.274;17.974;2023-08-12T12:31:37;101411.50;;;21.90;70.02
71476;BME280;59286;59.274;17.974;2023-08-12T12:34:03;101410.16;;;21.80;69.68